sensor_id;sensor_type;location;lat;lon;timestamp;P1;durP1;ratioP1;P2;durP2;ratioP2
39680;SDS011;26327;42.550;23.120;2023-02-22T06:40:54;18.55;;;7.50;;
39680;SDS011;26327;42.550;23.120;2023-02-22T06:43:20;22.83;;;8.73;;
39680;SDS011;26327;42.550;23.120;2023-02-22T06:45:46;13.65;;;5.30;;
39680;SDS011;26327;42.550;23.120;2023-02-22T06:48:12;8.48;;;3.38;;
39680;SDS011;26327;42.550;23.120;2023-02-22T06:50:38;26.15;;;11.18;;
39680;SDS011;26327;42.550;23.120;2023-02-22T06:53:03;53.05;;;23.33;;
39680;SDS011;26327;42.550;23.120;2023-02-22T06:55:30;28.98;;;13.75;;
39680;SDS011;26327;42.550;23.120;2023-02-22T06:57:57;50.05;;;20.23;;
39680;SDS011;26327;42.550;23.120;2023-02-22T07:00:23;16.40;;;6.65;;
39680;SDS011;26327;42.550;23.120;2023-02-22T07:02:50;9.43;;;5.10;;
39680;SDS011;26327;42.550;23.120;2023-02-22T07:05:17;10.25;;;4.50;;
39680;SDS011;26327;42.550;23.120;2023-02-22T07:07:45;14.82;;;6.55;;
39680;SDS011;26327;42.550;23.120;2023-02-22T07:10:17;16.30;;;7.68;;
39680;SDS011;26327;42.550;23.120;2023-02-22T07:12:43;17.33;;;6.32;;
39680;SDS011;26327;42.550;23.120;2023-02-22T07:15:09;9.43;;;2.88;;
39680;SDS011;26327;42.550;23.120;2023-02-22T07:17:34;10.48;;;4.75;;
39680;SDS011;26327;42.550;23.120;2023-02-22T07:20:00;15.35;;;6.05;;
39680;SDS011;26327;42.550;23.120;2023-02-22T07:22:25;15.57;;;5.70;;
39680;SDS011;26327;42.550;23.120;2023-02-22T07:24:50;32.22;;;13.57;;
39680;SDS011;26327;42.550;23.120;2023-02-22T07:27:16;17.10;;;8.77;;
39680;SDS011;26327;42.550;23.120;2023-02-22T07:29:42;24.83;;;10.85;;
39680;SDS011;26327;42.550;23.120;2023-02-22T07:32:08;31.70;;;14.05;;
39680;SDS011;26327;42.550;23.120;2023-02-22T07:34:33;22.95;;;11.85;;
39680;SDS011;26327;42.550;23.120;2023-02-22T07:36:59;26.85;;;11.18;;
39680;SDS011;26327;42.550;23.120;2023-02-22T07:39:25;35.55;;;17.55;;
39680;SDS011;26327;42.550;23.120;2023-02-22T07:41:51;31.30;;;14.75;;
39680;SDS011;26327;42.550;23.120;2023-02-22T07:44:16;23.35;;;10.73;;
39680;SDS011;26327;42.550;23.120;2023-02-22T07:46:45;18.60;;;8.57;;
39680;SDS011;26327;42.550;23.120;2023-02-22T07:49:12;17.08;;;7.15;;
39680;SDS011;26327;42.550;23.120;2023-02-22T07:51:37;12.85;;;8.23;;
39680;SDS011;26327;42.550;23.120;2023-02-22T07:54:02;13.63;;;7.07;;
39680;SDS011;26327;42.550;23.120;2023-02-22T07:56:28;40.30;;;15.50;;
39680;SDS011;26327;42.550;23.120;2023-02-22T07:58:53;44.83;;;15.35;;
39680;SDS011;26327;42.550;23.120;2023-02-22T08:01:19;33.13;;;11.95;;
39680;SDS011;26327;42.550;23.120;2023-02-22T08:03:44;13.80;;;7.65;;
39680;SDS011;26327;42.550;23.120;2023-02-22T08:06:11;16.80;;;7.95;;
39680;SDS011;26327;42.550;23.120;2023-02-22T08:08:36;12.20;;;6.22;;
39680;SDS011;26327;42.550;23.120;2023-02-22T08:11:02;14.82;;;6.40;;
39680;SDS011;26327;42.550;23.120;2023-02-22T08:13:28;11.70;;;6.18;;
39680;SDS011;26327;42.550;23.120;2023-02-22T08:15:53;17.67;;;8.65;;
39680;SDS011;26327;42.550;23.120;2023-02-22T08:18:20;15.60;;;7.82;;
39680;SDS011;26327;42.550;23.120;2023-02-22T08:20:47;19.85;;;8.85;;
39680;SDS011;26327;42.550;23.120;2023-02-22T08:23:14;18.05;;;10.43;;
39680;SDS011;26327;42.550;23.120;2023-02-22T08:25:40;26.02;;;11.63;;
39680;SDS011;26327;42.550;23.120;2023-02-22T08:28:13;16.52;;;8.63;;
39680;SDS011;26327;42.550;23.120;2023-02-22T08:30:41;18.20;;;9.82;;
39680;SDS011;26327;42.550;23.120;2023-02-22T08:33:07;17.27;;;9.75;;
39680;SDS011;26327;42.550;23.120;2023-02-22T08:35:38;19.75;;;10.80;;
39680;SDS011;26327;42.550;23.120;2023-02-22T08:38:05;28.05;;;15.77;;
39680;SDS011;26327;42.550;23.120;2023-02-22T08:40:32;16.63;;;7.78;;
39680;SDS011;26327;42.550;23.120;2023-02-22T08:43:00;16.25;;;8.93;;
39680;SDS011;26327;42.550;23.120;2023-02-22T08:45:26;23.38;;;10.02;;
39680;SDS011;26327;42.550;23.120;2023-02-22T08:47:52;18.88;;;9.55;;
39680;SDS011;26327;42.550;23.120;2023-02-22T08:50:25;26.05;;;13.35;;
39680;SDS011;26327;42.550;23.120;2023-02-22T08:52:52;22.90;;;11.30;;
39680;SDS011;26327;42.550;23.120;2023-02-22T08:55:23;19.10;;;10.52;;
39680;SDS011;26327;42.550;23.120;2023-02-22T08:57:50;20.40;;;11.05;;
39680;SDS011;26327;42.550;23.120;2023-02-22T09:00:16;25.00;;;13.23;;
39680;SDS011;26327;42.550;23.120;2023-02-22T09:02:43;13.25;;;8.18;;
39680;SDS011;26327;42.550;23.120;2023-02-22T09:05:08;13.32;;;8.27;;
39680;SDS011;26327;42.550;23.120;2023-02-22T09:07:34;20.00;;;11.18;;
39680;SDS011;26327;42.550;23.120;2023-02-22T09:09:59;11.88;;;7.10;;
39680;SDS011;26327;42.550;23.120;2023-02-22T09:12:25;9.32;;;5.93;;
39680;SDS011;26327;42.550;23.120;2023-02-22T09:14:50;9.00;;;4.85;;
39680;SDS011;26327;42.550;23.120;2023-02-22T09:17:16;10.45;;;5.07;;
39680;SDS011;26327;42.550;23.120;2023-02-22T09:19:41;12.32;;;6.78;;
39680;SDS011;26327;42.550;23.120;2023-02-22T09:22:06;8.55;;;4.78;;
39680;SDS011;26327;42.550;23.120;2023-02-22T09:24:32;11.35;;;5.15;;
39680;SDS011;26327;42.550;23.120;2023-02-22T09:26:58;7.07;;;4.30;;
39680;SDS011;26327;42.550;23.120;2023-02-22T09:29:24;9.32;;;4.55;;
39680;SDS011;26327;42.550;23.120;2023-02-22T09:31:52;9.82;;;5.65;;
39680;SDS011;26327;42.550;23.120;2023-02-22T09:34:19;9.48;;;4.88;;
39680;SDS011;26327;42.550;23.120;2023-02-22T09:36:46;10.30;;;5.43;;
39680;SDS011;26327;42.550;23.120;2023-02-22T09:39:16;10.52;;;6.90;;
39680;SDS011;26327;42.550;23.120;2023-02-22T09:46:48;9.93;;;5.18;;
39680;SDS011;26327;42.550;23.120;2023-02-22T09:54:33;10.88;;;4.72;;
39680;SDS011;26327;42.550;23.120;2023-02-22T09:57:05;7.07;;;5.00;;
39680;SDS011;26327;42.550;23.120;2023-02-22T09:59:36;11.95;;;6.20;;
39680;SDS011;26327;42.550;23.120;2023-02-22T10:05:02;12.75;;;6.40;;
39680;SDS011;26327;42.550;23.120;2023-02-22T10:07:38;11.32;;;5.60;;
39680;SDS011;26327;42.550;23.120;2023-02-22T10:10:14;13.73;;;5.18;;
39680;SDS011;26327;42.550;23.120;2023-02-22T10:28:51;7.88;;;3.78;;
39680;SDS011;26327;42.550;23.120;2023-02-22T10:31:22;9.73;;;4.05;;
39680;SDS011;26327;42.550;23.120;2023-02-22T10:33:57;6.28;;;3.90;;
39680;SDS011;26327;42.550;23.120;2023-02-22T10:36:26;9.73;;;4.22;;
39680;SDS011;26327;42.550;23.120;2023-02-22T10:39:06;8.93;;;3.80;;
39680;SDS011;26327;42.550;23.120;2023-02-22T10:41:39;11.18;;;4.65;;
39680;SDS011;26327;42.550;23.120;2023-02-22T10:44:08;7.60;;;5.50;;
39680;SDS011;26327;42.550;23.120;2023-02-22T10:46:34;8.82;;;3.20;;
39680;SDS011;26327;42.550;23.120;2023-02-22T10:49:01;7.15;;;3.38;;
39680;SDS011;26327;42.550;23.120;2023-02-22T10:51:31;6.70;;;3.70;;
39680;SDS011;26327;42.550;23.120;2023-02-22T10:56:47;3.63;;;2.78;;
39680;SDS011;26327;42.550;23.120;2023-02-22T11:02:20;5.45;;;3.10;;
39680;SDS011;26327;42.550;23.120;2023-02-22T11:04:58;4.80;;;3.50;;
39680;SDS011;26327;42.550;23.120;2023-02-22T11:07:29;5.43;;;3.08;;
39680;SDS011;26327;42.550;23.120;2023-02-22T11:12:35;4.60;;;2.77;;
39680;SDS011;26327;42.550;23.120;2023-02-22T11:17:46;3.95;;;3.00;;
39680;SDS011;26327;42.550;23.120;2023-02-22T11:20:27;4.20;;;3.08;;
39680;SDS011;26327;42.550;23.120;2023-02-22T11:25:36;9.02;;;3.05;;
39680;SDS011;26327;42.550;23.120;2023-02-22T11:28:25;5.18;;;2.92;;
39680;SDS011;26327;42.550;23.120;2023-02-22T11:31:13;6.40;;;3.08;;
39680;SDS011;26327;42.550;23.120;2023-02-22T11:33:43;5.40;;;2.80;;
39680;SDS011;26327;42.550;23.120;2023-02-22T11:36:13;5.05;;;2.95;;
39680;SDS011;26327;42.550;23.120;2023-02-22T11:38:55;4.55;;;2.75;;
39680;SDS011;26327;42.550;23.120;2023-02-22T11:43:53;5.82;;;3.08;;
39680;SDS011;26327;42.550;23.120;2023-02-22T11:46:22;3.92;;;2.85;;
39680;SDS011;26327;42.550;23.120;2023-02-22T12:11:00;6.35;;;3.90;;
39680;SDS011;26327;42.550;23.120;2023-02-22T12:14:00;4.93;;;3.28;;
39680;SDS011;26327;42.550;23.120;2023-02-22T12:21:33;8.80;;;3.33;;
39680;SDS011;26327;42.550;23.120;2023-02-22T12:24:05;5.10;;;3.00;;
39680;SDS011;26327;42.550;23.120;2023-02-22T12:26:34;4.07;;;2.70;;
39680;SDS011;26327;42.550;23.120;2023-02-22T12:29:05;3.00;;;2.40;;
39680;SDS011;26327;42.550;23.120;2023-02-22T12:34:07;3.70;;;2.67;;
39680;SDS011;26327;42.550;23.120;2023-02-22T12:36:52;6.78;;;3.03;;
39680;SDS011;26327;42.550;23.120;2023-02-22T12:41:57;7.75;;;3.42;;
39680;SDS011;26327;42.550;23.120;2023-02-22T12:44:33;5.20;;;3.37;;
39680;SDS011;26327;42.550;23.120;2023-02-22T12:47:02;5.50;;;2.67;;
39680;SDS011;26327;42.550;23.120;2023-02-22T13:14:37;6.13;;;3.95;;
39680;SDS011;26327;42.550;23.120;2023-02-22T13:17:14;6.45;;;3.55;;
39680;SDS011;26327;42.550;23.120;2023-02-22T13:19:53;9.52;;;4.88;;
39680;SDS011;26327;42.550;23.120;2023-02-22T13:22:39;7.75;;;4.50;;
39680;SDS011;26327;42.550;23.120;2023-02-22T13:30:34;6.55;;;3.65;;
39680;SDS011;26327;42.550;23.120;2023-02-22T13:46:58;18.35;;;3.70;;
39680;SDS011;26327;42.550;23.120;2023-02-22T13:52:48;6.82;;;3.20;;
39680;SDS011;26327;42.550;23.120;2023-02-22T13:55:20;8.02;;;3.70;;
39680;SDS011;26327;42.550;23.120;2023-02-22T13:57:55;8.45;;;3.53;;
39680;SDS011;26327;42.550;23.120;2023-02-22T14:06:35;9.68;;;4.45;;
39680;SDS011;26327;42.550;23.120;2023-02-22T14:09:06;7.63;;;3.85;;
39680;SDS011;26327;42.550;23.120;2023-02-22T14:16:27;6.97;;;3.10;;
39680;SDS011;26327;42.550;23.120;2023-02-22T14:19:04;12.55;;;3.85;;
39680;SDS011;26327;42.550;23.120;2023-02-22T14:21:30;6.03;;;2.88;;
39680;SDS011;26327;42.550;23.120;2023-02-22T14:24:05;4.80;;;2.90;;
39680;SDS011;26327;42.550;23.120;2023-02-22T14:26:40;6.30;;;3.17;;
39680;SDS011;26327;42.550;23.120;2023-02-22T14:29:18;6.60;;;4.35;;
39680;SDS011;26327;42.550;23.120;2023-02-22T14:34:16;12.18;;;3.67;;
39680;SDS011;26327;42.550;23.120;2023-02-22T14:39:38;5.15;;;3.20;;
39680;SDS011;26327;42.550;23.120;2023-02-22T14:42:23;7.88;;;3.28;;
39680;SDS011;26327;42.550;23.120;2023-02-22T14:55:45;15.90;;;5.60;;
39680;SDS011;26327;42.550;23.120;2023-02-22T14:58:36;6.32;;;3.90;;
39680;SDS011;26327;42.550;23.120;2023-02-22T15:03:49;7.38;;;4.90;;
39680;SDS011;26327;42.550;23.120;2023-02-22T15:06:17;10.60;;;5.75;;
39680;SDS011;26327;42.550;23.120;2023-02-22T15:08:46;7.47;;;3.20;;
39680;SDS011;26327;42.550;23.120;2023-02-22T15:13:51;15.77;;;8.75;;
39680;SDS011;26327;42.550;23.120;2023-02-22T15:16:18;12.95;;;6.47;;
39680;SDS011;26327;42.550;23.120;2023-02-22T15:18:47;12.10;;;5.22;;
39680;SDS011;26327;42.550;23.120;2023-02-22T15:21:17;11.80;;;5.53;;
39680;SDS011;26327;42.550;23.120;2023-02-22T15:23:53;9.10;;;5.07;;
39680;SDS011;26327;42.550;23.120;2023-02-22T15:28:55;6.03;;;3.90;;
39680;SDS011;26327;42.550;23.120;2023-02-22T15:34:08;6.43;;;3.72;;
39680;SDS011;26327;42.550;23.120;2023-02-22T15:36:36;6.78;;;3.70;;
39680;SDS011;26327;42.550;23.120;2023-02-22T15:39:02;7.80;;;4.18;;
39680;SDS011;26327;42.550;23.120;2023-02-22T15:41:33;7.45;;;4.07;;
39680;SDS011;26327;42.550;23.120;2023-02-22T15:44:00;6.13;;;3.90;;
39680;SDS011;26327;42.550;23.120;2023-02-22T15:46:32;8.52;;;4.00;;
39680;SDS011;26327;42.550;23.120;2023-02-22T15:51:40;11.98;;;3.90;;
39680;SDS011;26327;42.550;23.120;2023-02-22T15:54:10;13.82;;;4.22;;
39680;SDS011;26327;42.550;23.120;2023-02-22T15:56:40;12.30;;;4.63;;
39680;SDS011;26327;42.550;23.120;2023-02-22T15:59:13;7.30;;;4.72;;
39680;SDS011;26327;42.550;23.120;2023-02-22T16:01:43;14.38;;;7.70;;
39680;SDS011;26327;42.550;23.120;2023-02-22T16:04:17;12.10;;;6.30;;
39680;SDS011;26327;42.550;23.120;2023-02-22T16:06:45;12.45;;;6.82;;
39680;SDS011;26327;42.550;23.120;2023-02-22T16:09:21;29.23;;;18.75;;
39680;SDS011;26327;42.550;23.120;2023-02-22T16:12:39;13.63;;;8.95;;
39680;SDS011;26327;42.550;23.120;2023-02-22T16:14:45;17.92;;;10.55;;
39680;SDS011;26327;42.550;23.120;2023-02-22T16:22:35;54.53;;;34.47;;
39680;SDS011;26327;42.550;23.120;2023-02-22T16:25:23;28.98;;;15.38;;
39680;SDS011;26327;42.550;23.120;2023-02-22T16:28:01;94.57;;;62.88;;
39680;SDS011;26327;42.550;23.120;2023-02-22T16:30:54;107.55;;;68.43;;
39680;SDS011;26327;42.550;23.120;2023-02-22T16:33:21;74.43;;;47.70;;
39680;SDS011;26327;42.550;23.120;2023-02-22T16:35:46;62.08;;;37.83;;
39680;SDS011;26327;42.550;23.120;2023-02-22T16:38:21;17.00;;;9.30;;
39680;SDS011;26327;42.550;23.120;2023-02-22T16:43:22;23.60;;;9.30;;
39680;SDS011;26327;42.550;23.120;2023-02-22T16:45:50;53.78;;;25.42;;
39680;SDS011;26327;42.550;23.120;2023-02-22T16:48:23;48.72;;;24.85;;
39680;SDS011;26327;42.550;23.120;2023-02-22T16:50:52;39.35;;;20.98;;
39680;SDS011;26327;42.550;23.120;2023-02-22T16:53:23;33.10;;;18.33;;
39680;SDS011;26327;42.550;23.120;2023-02-22T16:55:50;44.75;;;18.67;;
39680;SDS011;26327;42.550;23.120;2023-02-22T16:58:21;34.47;;;18.60;;
39680;SDS011;26327;42.550;23.120;2023-02-22T17:00:52;43.65;;;21.65;;
39680;SDS011;26327;42.550;23.120;2023-02-22T17:03:17;39.67;;;21.23;;
39680;SDS011;26327;42.550;23.120;2023-02-22T17:05:44;66.72;;;30.00;;
39680;SDS011;26327;42.550;23.120;2023-02-22T17:08:10;39.38;;;22.38;;
39680;SDS011;26327;42.550;23.120;2023-02-22T17:10:35;44.33;;;20.13;;
39680;SDS011;26327;42.550;23.120;2023-02-22T17:13:01;50.63;;;27.50;;
39680;SDS011;26327;42.550;23.120;2023-02-22T17:15:29;46.83;;;29.70;;
39680;SDS011;26327;42.550;23.120;2023-02-22T17:17:56;52.85;;;32.03;;
39680;SDS011;26327;42.550;23.120;2023-02-22T17:20:23;55.00;;;31.98;;
39680;SDS011;26327;42.550;23.120;2023-02-22T17:22:58;42.97;;;26.10;;
39680;SDS011;26327;42.550;23.120;2023-02-22T17:25:30;45.72;;;25.40;;
39680;SDS011;26327;42.550;23.120;2023-02-22T17:27:58;47.97;;;26.75;;
39680;SDS011;26327;42.550;23.120;2023-02-22T17:30:24;43.50;;;23.55;;
39680;SDS011;26327;42.550;23.120;2023-02-22T17:32:50;39.97;;;22.77;;
39680;SDS011;26327;42.550;23.120;2023-02-22T17:35:19;39.70;;;25.75;;
39680;SDS011;26327;42.550;23.120;2023-02-22T17:37:48;50.45;;;28.15;;
39680;SDS011;26327;42.550;23.120;2023-02-22T17:40:14;44.40;;;26.30;;
39680;SDS011;26327;42.550;23.120;2023-02-22T17:42:40;47.55;;;27.25;;
39680;SDS011;26327;42.550;23.120;2023-02-22T17:45:10;48.88;;;28.90;;
39680;SDS011;26327;42.550;23.120;2023-02-22T17:47:41;50.22;;;27.30;;
39680;SDS011;26327;42.550;23.120;2023-02-22T17:52:38;59.28;;;32.53;;
39680;SDS011;26327;42.550;23.120;2023-02-22T17:55:04;90.75;;;48.00;;
39680;SDS011;26327;42.550;23.120;2023-02-22T17:57:30;61.92;;;32.20;;
39680;SDS011;26327;42.550;23.120;2023-02-22T17:59:56;55.05;;;29.25;;
39680;SDS011;26327;42.550;23.120;2023-02-22T18:02:22;54.20;;;27.55;;
39680;SDS011;26327;42.550;23.120;2023-02-22T18:04:48;50.65;;;24.80;;
39680;SDS011;26327;42.550;23.120;2023-02-22T18:07:13;45.60;;;25.38;;
39680;SDS011;26327;42.550;23.120;2023-02-22T18:09:43;53.40;;;27.63;;
39680;SDS011;26327;42.550;23.120;2023-02-22T18:12:08;46.42;;;23.02;;
39680;SDS011;26327;42.550;23.120;2023-02-22T18:14:34;50.92;;;24.33;;
39680;SDS011;26327;42.550;23.120;2023-02-22T18:16:59;57.35;;;23.55;;
39680;SDS011;26327;42.550;23.120;2023-02-22T18:19:26;43.63;;;21.13;;
39680;SDS011;26327;42.550;23.120;2023-02-22T18:21:53;42.58;;;21.13;;
39680;SDS011;26327;42.550;23.120;2023-02-22T18:24:19;38.50;;;18.70;;
39680;SDS011;26327;42.550;23.120;2023-02-22T18:26:44;35.55;;;18.45;;
39680;SDS011;26327;42.550;23.120;2023-02-22T18:29:10;32.15;;;16.65;;
39680;SDS011;26327;42.550;23.120;2023-02-22T18:31:36;40.58;;;21.88;;
39680;SDS011;26327;42.550;23.120;2023-02-22T18:34:02;40.72;;;19.35;;
39680;SDS011;26327;42.550;23.120;2023-02-22T18:36:27;35.53;;;16.95;;
39680;SDS011;26327;42.550;23.120;2023-02-22T18:38:53;36.35;;;18.60;;
39680;SDS011;26327;42.550;23.120;2023-02-22T18:41:19;36.20;;;17.17;;
39680;SDS011;26327;42.550;23.120;2023-02-22T18:43:49;31.55;;;16.75;;
39680;SDS011;26327;42.550;23.120;2023-02-22T18:46:18;41.90;;;19.40;;
39680;SDS011;26327;42.550;23.120;2023-02-22T18:48:45;34.42;;;18.77;;
39680;SDS011;26327;42.550;23.120;2023-02-22T18:51:13;39.92;;;15.93;;
39680;SDS011;26327;42.550;23.120;2023-02-22T18:53:40;38.13;;;18.00;;
39680;SDS011;26327;42.550;23.120;2023-02-22T18:56:12;35.03;;;16.50;;
39680;SDS011;26327;42.550;23.120;2023-02-22T18:58:40;27.70;;;11.70;;
39680;SDS011;26327;42.550;23.120;2023-02-22T19:01:07;38.40;;;19.33;;
39680;SDS011;26327;42.550;23.120;2023-02-22T19:03:38;36.78;;;17.63;;
39680;SDS011;26327;42.550;23.120;2023-02-22T19:06:04;31.27;;;14.88;;
39680;SDS011;26327;42.550;23.120;2023-02-22T19:08:33;32.22;;;15.98;;
39680;SDS011;26327;42.550;23.120;2023-02-22T19:11:02;29.27;;;13.68;;
39680;SDS011;26327;42.550;23.120;2023-02-22T19:13:29;34.13;;;17.35;;
39680;SDS011;26327;42.550;23.120;2023-02-22T19:15:55;36.72;;;17.52;;
39680;SDS011;26327;42.550;23.120;2023-02-22T19:18:20;37.42;;;16.52;;
39680;SDS011;26327;42.550;23.120;2023-02-22T19:20:54;26.23;;;14.20;;
39680;SDS011;26327;42.550;23.120;2023-02-22T19:23:20;46.05;;;21.33;;
39680;SDS011;26327;42.550;23.120;2023-02-22T19:25:46;43.28;;;18.45;;
39680;SDS011;26327;42.550;23.120;2023-02-22T19:28:11;41.80;;;20.75;;
39680;SDS011;26327;42.550;23.120;2023-02-22T19:30:39;39.35;;;15.88;;
39680;SDS011;26327;42.550;23.120;2023-02-22T19:33:06;32.80;;;15.68;;
39680;SDS011;26327;42.550;23.120;2023-02-22T19:35:32;28.52;;;15.15;;
39680;SDS011;26327;42.550;23.120;2023-02-22T19:37:57;29.05;;;12.30;;
39680;SDS011;26327;42.550;23.120;2023-02-22T19:40:23;21.80;;;10.50;;
39680;SDS011;26327;42.550;23.120;2023-02-22T19:42:49;21.42;;;9.82;;
39680;SDS011;26327;42.550;23.120;2023-02-22T19:45:16;23.73;;;13.13;;
39680;SDS011;26327;42.550;23.120;2023-02-22T19:47:43;34.33;;;14.43;;
39680;SDS011;26327;42.550;23.120;2023-02-22T19:50:10;27.63;;;15.23;;
39680;SDS011;26327;42.550;23.120;2023-02-22T19:52:36;27.08;;;13.77;;
39680;SDS011;26327;42.550;23.120;2023-02-22T19:55:03;27.25;;;13.73;;
39680;SDS011;26327;42.550;23.120;2023-02-22T19:57:36;28.15;;;14.02;;
39680;SDS011;26327;42.550;23.120;2023-02-22T20:00:02;20.38;;;12.10;;
39680;SDS011;26327;42.550;23.120;2023-02-22T20:02:34;22.48;;;12.77;;
39680;SDS011;26327;42.550;23.120;2023-02-22T20:05:00;25.00;;;12.60;;
39680;SDS011;26327;42.550;23.120;2023-02-22T20:07:25;28.88;;;13.88;;
39680;SDS011;26327;42.550;23.120;2023-02-22T20:09:51;24.42;;;12.32;;
39680;SDS011;26327;42.550;23.120;2023-02-22T20:12:17;25.27;;;12.65;;
39680;SDS011;26327;42.550;23.120;2023-02-22T20:14:43;21.20;;;11.15;;
39680;SDS011;26327;42.550;23.120;2023-02-22T20:17:10;16.90;;;10.25;;
39680;SDS011;26327;42.550;23.120;2023-02-22T20:19:35;17.42;;;9.98;;
39680;SDS011;26327;42.550;23.120;2023-02-22T20:22:02;19.88;;;11.10;;
39680;SDS011;26327;42.550;23.120;2023-02-22T20:24:28;23.35;;;12.80;;
39680;SDS011;26327;42.550;23.120;2023-02-22T20:26:53;22.95;;;12.05;;
39680;SDS011;26327;42.550;23.120;2023-02-22T20:29:21;23.80;;;12.18;;
39680;SDS011;26327;42.550;23.120;2023-02-22T20:31:53;24.23;;;12.18;;
39680;SDS011;26327;42.550;23.120;2023-02-22T20:34:20;26.90;;;11.60;;
39680;SDS011;26327;42.550;23.120;2023-02-22T20:36:46;24.98;;;12.10;;
39680;SDS011;26327;42.550;23.120;2023-02-22T20:39:12;19.88;;;11.57;;
39680;SDS011;26327;42.550;23.120;2023-02-22T20:41:39;23.80;;;10.18;;
39680;SDS011;26327;42.550;23.120;2023-02-22T20:44:06;17.48;;;10.43;;
39680;SDS011;26327;42.550;23.120;2023-02-22T20:46:32;29.38;;;16.40;;
39680;SDS011;26327;42.550;23.120;2023-02-22T20:49:01;29.75;;;15.90;;
39680;SDS011;26327;42.550;23.120;2023-02-22T20:51:31;17.42;;;9.93;;
39680;SDS011;26327;42.550;23.120;2023-02-22T20:53:58;20.15;;;10.55;;
39680;SDS011;26327;42.550;23.120;2023-02-22T20:56:25;38.00;;;18.77;;
39680;SDS011;26327;42.550;23.120;2023-02-22T20:58:53;117.78;;;48.45;;
39680;SDS011;26327;42.550;23.120;2023-02-22T21:01:20;98.00;;;37.70;;
39680;SDS011;26327;42.550;23.120;2023-02-22T21:03:47;43.80;;;22.63;;
39680;SDS011;26327;42.550;23.120;2023-02-22T21:06:14;30.23;;;18.80;;
39680;SDS011;26327;42.550;23.120;2023-02-22T21:08:42;18.42;;;12.52;;
39680;SDS011;26327;42.550;23.120;2023-02-22T21:11:13;29.85;;;17.63;;
39680;SDS011;26327;42.550;23.120;2023-02-22T21:13:40;58.10;;;29.00;;
39680;SDS011;26327;42.550;23.120;2023-02-22T21:16:06;36.40;;;19.35;;
39680;SDS011;26327;42.550;23.120;2023-02-22T21:18:34;19.42;;;10.85;;
39680;SDS011;26327;42.550;23.120;2023-02-22T21:21:04;25.02;;;14.02;;
39680;SDS011;26327;42.550;23.120;2023-02-22T21:23:38;42.85;;;19.38;;
39680;SDS011;26327;42.550;23.120;2023-02-22T21:26:04;39.90;;;18.30;;
39680;SDS011;26327;42.550;23.120;2023-02-22T21:28:31;45.60;;;21.17;;
39680;SDS011;26327;42.550;23.120;2023-02-22T21:31:02;41.05;;;18.73;;
39680;SDS011;26327;42.550;23.120;2023-02-22T21:33:30;39.22;;;19.02;;
39680;SDS011;26327;42.550;23.120;2023-02-22T21:35:55;37.85;;;17.63;;
39680;SDS011;26327;42.550;23.120;2023-02-22T21:38:21;36.15;;;17.33;;
39680;SDS011;26327;42.550;23.120;2023-02-22T21:40:47;35.80;;;15.77;;
39680;SDS011;26327;42.550;23.120;2023-02-22T21:43:12;58.00;;;22.45;;
39680;SDS011;26327;42.550;23.120;2023-02-22T21:45:37;64.53;;;23.23;;
39680;SDS011;26327;42.550;23.120;2023-02-22T21:48:03;53.65;;;21.25;;
39680;SDS011;26327;42.550;23.120;2023-02-22T21:50:29;13.27;;;7.57;;
39680;SDS011;26327;42.550;23.120;2023-02-22T21:52:55;23.27;;;9.07;;
39680;SDS011;26327;42.550;23.120;2023-02-22T21:55:22;36.15;;;15.18;;
39680;SDS011;26327;42.550;23.120;2023-02-22T21:57:47;54.60;;;22.38;;
39680;SDS011;26327;42.550;23.120;2023-02-22T22:00:13;41.05;;;18.55;;
39680;SDS011;26327;42.550;23.120;2023-02-22T22:02:43;17.45;;;8.75;;
39680;SDS011;26327;42.550;23.120;2023-02-22T22:05:10;12.57;;;7.15;;
39680;SDS011;26327;42.550;23.120;2023-02-22T22:07:41;22.83;;;9.52;;
39680;SDS011;26327;42.550;23.120;2023-02-22T22:10:09;20.95;;;9.55;;
39680;SDS011;26327;42.550;23.120;2023-02-22T22:12:42;12.43;;;7.00;;
39680;SDS011;26327;42.550;23.120;2023-02-22T22:15:10;11.60;;;6.20;;
39680;SDS011;26327;42.550;23.120;2023-02-22T22:17:43;14.00;;;7.30;;
39680;SDS011;26327;42.550;23.120;2023-02-22T22:20:09;10.00;;;5.70;;
39680;SDS011;26327;42.550;23.120;2023-02-22T22:22:38;11.50;;;6.18;;
39680;SDS011;26327;42.550;23.120;2023-02-22T22:25:06;15.80;;;8.38;;
39680;SDS011;26327;42.550;23.120;2023-02-22T22:27:32;15.00;;;7.82;;
39680;SDS011;26327;42.550;23.120;2023-02-22T22:29:58;14.75;;;8.05;;
39680;SDS011;26327;42.550;23.120;2023-02-22T22:32:25;15.52;;;8.15;;
39680;SDS011;26327;42.550;23.120;2023-02-22T22:34:53;12.25;;;7.47;;
39680;SDS011;26327;42.550;23.120;2023-02-22T22:37:23;13.73;;;8.98;;
39680;SDS011;26327;42.550;23.120;2023-02-22T22:39:49;15.70;;;8.30;;
39680;SDS011;26327;42.550;23.120;2023-02-22T22:42:14;22.95;;;9.85;;
39680;SDS011;26327;42.550;23.120;2023-02-22T22:44:39;21.20;;;10.10;;
39680;SDS011;26327;42.550;23.120;2023-02-22T22:47:09;22.83;;;10.30;;
39680;SDS011;26327;42.550;23.120;2023-02-22T22:49:36;18.75;;;9.38;;
39680;SDS011;26327;42.550;23.120;2023-02-22T22:52:05;20.02;;;7.63;;
39680;SDS011;26327;42.550;23.120;2023-02-22T22:54:31;15.50;;;8.20;;
39680;SDS011;26327;42.550;23.120;2023-02-22T22:56:56;16.33;;;7.90;;
39680;SDS011;26327;42.550;23.120;2023-02-22T22:59:22;20.15;;;8.20;;
39680;SDS011;26327;42.550;23.120;2023-02-22T23:01:47;20.70;;;10.32;;
39680;SDS011;26327;42.550;23.120;2023-02-22T23:04:14;23.48;;;10.25;;
39680;SDS011;26327;42.550;23.120;2023-02-22T23:06:42;21.55;;;9.35;;
39680;SDS011;26327;42.550;23.120;2023-02-22T23:11:43;15.40;;;6.68;;
39680;SDS011;26327;42.550;23.120;2023-02-22T23:14:11;14.45;;;6.90;;
39680;SDS011;26327;42.550;23.120;2023-02-22T23:16:39;15.38;;;6.07;;
39680;SDS011;26327;42.550;23.120;2023-02-22T23:19:06;10.70;;;5.55;;
39680;SDS011;26327;42.550;23.120;2023-02-22T23:21:32;15.38;;;7.32;;
39680;SDS011;26327;42.550;23.120;2023-02-22T23:24:00;13.32;;;6.57;;
39680;SDS011;26327;42.550;23.120;2023-02-22T23:26:34;10.88;;;5.55;;
39680;SDS011;26327;42.550;23.120;2023-02-22T23:29:00;10.10;;;5.78;;
